Attica, New York
Current Conditions -  °F | °C
As of 1:54 PM on Thursday 23 Oct 2014 (Local Time) from KBUF Reporting Station
Few Clouds Few Clouds  
Wind Chill: 58°   Ceiling: Unl
Heat Index: 58°   Visibility: 10mi
Dew Point: 40°   Wind: 10mph
Humidity: 51%   Direction: 320°NW
Pressure: 30.07"   Gusts: NA
Location:  42.86°N, 78.28°W
Report Text: KBUF 231754Z 32009KT 10SM FEW036 FEW060 FEW100 FEW220 14/04 A3007 RMK AO2 SLP185 T01440044 10144 20056 58018
Loading
Personal Weather Stations






























Interactive Weather Map
Tropical Storm Tracking
New forecast layout! Learn more

10-Day Weather Forecast

Advertisements
Track Severe Weather on mobile